createdAt,value
2023-03-15T00:00:16.958Z,16.15
2023-03-15T00:01:16.952Z,16.15
2023-03-15T00:02:16.965Z,16.21
2023-03-15T00:03:17.003Z,16.15
2023-03-15T00:04:16.936Z,16.17
2023-03-15T00:05:16.929Z,16.20
2023-03-15T00:06:16.918Z,16.17
2023-03-15T00:07:16.933Z,16.21
2023-03-15T00:08:16.920Z,16.17
2023-03-15T00:09:16.913Z,16.15
2023-03-15T00:10:16.909Z,16.14
2023-03-15T00:11:16.937Z,16.17
2023-03-15T00:12:16.884Z,16.21
2023-03-15T00:13:16.882Z,16.17
2023-03-15T00:14:16.882Z,16.14
2023-03-15T00:15:16.872Z,16.15
2023-03-15T00:16:16.938Z,16.23
2023-03-15T00:17:16.887Z,16.24
2023-03-15T00:18:16.878Z,16.12
2023-03-15T00:19:16.870Z,16.15
2023-03-15T00:20:16.847Z,16.23
2023-03-15T00:21:16.876Z,16.17
2023-03-15T00:22:16.854Z,16.21
2023-03-15T00:23:16.862Z,16.14
2023-03-15T00:24:16.820Z,16.17
2023-03-15T00:25:16.835Z,16.20
2023-03-15T00:26:16.841Z,16.14
2023-03-15T00:27:16.811Z,16.20
2023-03-15T00:28:16.821Z,16.23
2023-03-15T00:29:16.805Z,16.17
2023-03-15T00:30:16.825Z,16.21
2023-03-15T00:31:16.927Z,16.20
2023-03-15T00:32:16.793Z,16.24
2023-03-15T00:33:16.794Z,16.12
2023-03-15T00:34:16.776Z,16.17
2023-03-15T00:35:16.801Z,16.11
2023-03-15T00:36:16.792Z,16.17
2023-03-15T00:37:16.762Z,16.14
2023-03-15T00:38:16.771Z,16.21
2023-03-15T00:39:16.788Z,16.11
2023-03-15T00:40:16.753Z,16.15
2023-03-15T00:41:16.742Z,16.21
2023-03-15T00:42:16.742Z,16.08
2023-03-15T00:43:16.747Z,16.11
2023-03-15T00:44:16.730Z,16.14
2023-03-15T00:45:16.726Z,16.15
2023-03-15T00:46:16.773Z,16.17
2023-03-15T00:47:16.714Z,16.14
2023-03-15T00:48:16.718Z,16.11
2023-03-15T00:49:16.713Z,16.20
2023-03-15T00:50:16.696Z,16.15
2023-03-15T00:51:16.707Z,16.12
2023-03-15T00:52:16.698Z,16.11
2023-03-15T00:53:16.704Z,16.14
2023-03-15T00:54:16.700Z,16.12
2023-03-15T00:55:16.712Z,16.11
2023-03-15T00:56:16.703Z,16.11
2023-03-15T00:57:16.675Z,16.12
2023-03-15T00:58:16.655Z,16.12
2023-03-15T00:59:16.655Z,16.08
2023-03-15T01:00:16.652Z,16.15
2023-03-15T01:01:16.661Z,16.11
2023-03-15T01:02:16.651Z,16.14
2023-03-15T01:03:16.737Z,16.12
2023-03-15T01:04:16.645Z,16.17
2023-03-15T01:05:16.636Z,16.15
2023-03-15T01:06:16.634Z,16.11
2023-03-15T01:07:16.647Z,16.14
2023-03-15T01:08:16.615Z,16.14
2023-03-15T01:09:16.623Z,16.08
2023-03-15T01:10:16.604Z,16.11
2023-03-15T01:11:16.624Z,16.09
2023-03-15T01:12:16.602Z,16.14
2023-03-15T01:13:16.601Z,16.14
2023-03-15T01:14:16.598Z,16.12
2023-03-15T01:15:16.589Z,16.12
2023-03-15T01:16:16.584Z,16.09
2023-03-15T01:17:16.569Z,16.11
2023-03-15T01:18:16.572Z,16.09
2023-03-15T01:19:16.560Z,16.09
2023-03-15T01:20:16.565Z,16.11
2023-03-15T01:21:16.553Z,16.12
2023-03-15T01:22:16.552Z,16.11
2023-03-15T01:23:16.552Z,16.09
2023-03-15T01:24:16.542Z,16.08
2023-03-15T01:25:16.549Z,16.05
2023-03-15T01:26:16.532Z,16.08
2023-03-15T01:27:16.558Z,16.11
2023-03-15T01:28:16.514Z,16.08
2023-03-15T01:29:16.528Z,16.09
2023-03-15T01:30:16.497Z,16.14
2023-03-15T01:31:16.529Z,16.11
2023-03-15T01:32:16.504Z,16.12
2023-03-15T01:33:16.504Z,16.11
2023-03-15T01:34:16.478Z,16.08
2023-03-15T01:35:16.481Z,16.09
2023-03-15T01:36:16.485Z,16.09
2023-03-15T01:37:16.480Z,16.07
2023-03-15T01:38:16.462Z,16.09
2023-03-15T01:39:16.461Z,16.08
2023-03-15T01:40:16.456Z,16.11
2023-03-15T01:41:16.458Z,16.09
2023-03-15T01:42:16.456Z,16.07
2023-03-15T01:43:16.475Z,16.08
2023-03-15T01:44:16.449Z,16.09
2023-03-15T01:45:16.461Z,16.02
2023-03-15T01:46:16.497Z,16.12
2023-03-15T01:47:16.440Z,16.07
2023-03-15T01:48:16.410Z,16.12
2023-03-15T01:49:16.424Z,16.08
2023-03-15T01:50:16.405Z,16.12
2023-03-15T01:51:16.407Z,16.11
2023-03-15T01:52:16.406Z,16.12
2023-03-15T01:53:16.409Z,16.14
2023-03-15T01:54:16.384Z,16.09
2023-03-15T01:55:16.381Z,16.09
2023-03-15T01:56:16.372Z,16.15
2023-03-15T01:57:16.371Z,16.08
2023-03-15T01:58:16.360Z,16.11
2023-03-15T01:59:16.383Z,16.08
2023-03-15T02:00:16.369Z,16.07
2023-03-15T02:01:16.524Z,16.01
2023-03-15T02:02:16.347Z,16.01
2023-03-15T02:03:16.390Z,16.09
2023-03-15T02:04:16.334Z,16.07
2023-03-15T02:05:16.338Z,16.05
2023-03-15T02:06:16.344Z,16.09
2023-03-15T02:07:16.344Z,16.05
2023-03-15T02:08:16.328Z,16.07
2023-03-15T02:09:16.319Z,16.07
2023-03-15T02:10:16.327Z,16.05
2023-03-15T02:11:16.324Z,16.04
2023-03-15T02:12:16.307Z,16.08
2023-03-15T02:13:16.294Z,16.02
2023-03-15T02:14:16.312Z,16.01
2023-03-15T02:15:16.314Z,16.04
2023-03-15T02:16:16.354Z,16.02
2023-03-15T02:17:16.274Z,16.09
2023-03-15T02:18:16.299Z,16.11
2023-03-15T02:19:16.283Z,16.05
2023-03-15T02:20:16.288Z,16.08
2023-03-15T02:21:16.252Z,16.04
2023-03-15T02:22:16.266Z,16.11
2023-03-15T02:23:16.285Z,16.08
2023-03-15T02:24:16.281Z,16.02
2023-03-15T02:25:16.250Z,16.00
2023-03-15T02:26:16.227Z,16.08
2023-03-15T02:27:16.327Z,15.93
2023-03-15T02:28:16.222Z,16.02
2023-03-15T02:29:16.229Z,15.90
2023-03-15T02:30:16.214Z,16.05
2023-03-15T02:31:16.289Z,16.01
2023-03-15T02:32:16.201Z,15.96
2023-03-15T02:33:16.216Z,15.96
2023-03-15T02:34:16.189Z,15.96
2023-03-15T02:35:16.196Z,15.97
2023-03-15T02:36:16.195Z,16.07
2023-03-15T02:37:16.196Z,15.97
2023-03-15T02:38:16.173Z,15.96
2023-03-15T02:39:16.173Z,15.93
2023-03-15T02:40:16.176Z,15.94
2023-03-15T02:41:16.171Z,15.87
2023-03-15T02:42:16.171Z,15.97
2023-03-15T02:43:16.144Z,15.96
2023-03-15T02:44:16.142Z,15.93
2023-03-15T02:45:16.141Z,15.93
2023-03-15T02:46:16.195Z,15.97
2023-03-15T02:47:16.138Z,15.97
2023-03-15T02:48:16.124Z,15.97
2023-03-15T02:49:16.131Z,15.84
2023-03-15T02:50:16.128Z,15.96
2023-03-15T02:51:16.110Z,15.92
2023-03-15T02:52:16.102Z,15.89
2023-03-15T02:53:16.135Z,15.84
2023-03-15T02:54:16.116Z,15.90
2023-03-15T02:55:16.133Z,15.90
2023-03-15T02:56:16.114Z,15.90
2023-03-15T02:57:16.075Z,15.96
2023-03-15T02:58:16.087Z,15.92
2023-03-15T02:59:16.095Z,15.84
2023-03-15T03:00:16.092Z,15.92
2023-03-15T03:01:16.217Z,15.92
2023-03-15T03:02:16.123Z,15.89
2023-03-15T03:03:16.074Z,15.83
2023-03-15T03:04:16.095Z,15.87
2023-03-15T03:05:16.052Z,15.84
2023-03-15T03:06:16.071Z,15.94
2023-03-15T03:07:16.039Z,15.89
2023-03-15T03:08:16.027Z,15.90
2023-03-15T03:09:16.048Z,15.83
2023-03-15T03:10:16.029Z,15.86
2023-03-15T03:11:16.018Z,15.84
2023-03-15T03:12:16.020Z,15.92
2023-03-15T03:13:15.994Z,15.89
2023-03-15T03:14:16.008Z,15.87
2023-03-15T03:15:16.010Z,15.86
2023-03-15T03:16:16.054Z,15.89
2023-03-15T03:17:15.976Z,15.89
2023-03-15T03:18:15.996Z,15.87
2023-03-15T03:19:15.981Z,15.90
2023-03-15T03:20:16.017Z,15.84
2023-03-15T03:21:15.972Z,15.89
2023-03-15T03:22:15.952Z,15.84
2023-03-15T03:23:15.951Z,15.86
2023-03-15T03:24:16.002Z,15.78
2023-03-15T03:25:15.933Z,15.89
2023-03-15T03:26:15.928Z,15.72
2023-03-15T03:27:15.916Z,15.89
2023-03-15T03:28:15.937Z,15.90
2023-03-15T03:29:15.927Z,15.89
2023-03-15T03:30:15.952Z,15.84
2023-03-15T03:31:15.923Z,15.90
2023-03-15T03:32:15.905Z,15.72
2023-03-15T03:33:15.904Z,15.84
2023-03-15T03:34:15.934Z,15.83
2023-03-15T03:35:16.288Z,15.78
2023-03-15T03:36:15.882Z,15.80
2023-03-15T03:37:15.879Z,15.76
2023-03-15T03:38:15.894Z,15.74
2023-03-15T03:39:15.892Z,15.75
2023-03-15T03:40:15.867Z,15.75
2023-03-15T03:41:15.851Z,15.71
2023-03-15T03:42:15.861Z,15.72
2023-03-15T03:43:15.865Z,15.76
2023-03-15T03:44:15.850Z,15.76
2023-03-15T03:45:15.835Z,15.80
2023-03-15T03:46:15.871Z,15.72
2023-03-15T03:47:15.848Z,15.75
2023-03-15T03:48:15.808Z,15.72
2023-03-15T03:49:15.806Z,15.71
2023-03-15T03:50:15.814Z,15.71
2023-03-15T03:51:15.829Z,15.75
2023-03-15T03:52:15.796Z,15.72
2023-03-15T03:53:15.790Z,15.80
2023-03-15T03:54:17.604Z,15.74
2023-03-15T03:55:15.770Z,15.75
2023-03-15T03:56:15.781Z,15.69
2023-03-15T03:57:15.762Z,15.74
2023-03-15T03:58:15.760Z,15.72
2023-03-15T03:59:15.765Z,15.72
2023-03-15T04:00:15.801Z,15.76
2023-03-15T04:01:15.745Z,15.71
2023-03-15T04:02:15.776Z,15.75
2023-03-15T04:03:15.731Z,15.80
2023-03-15T04:04:15.773Z,15.71
2023-03-15T04:05:15.761Z,15.74
2023-03-15T04:06:15.714Z,15.71
2023-03-15T04:07:17.087Z,15.71
2023-03-15T04:08:15.724Z,15.74
2023-03-15T04:09:15.701Z,15.74
2023-03-15T04:10:15.726Z,15.78
2023-03-15T04:11:15.691Z,15.71
2023-03-15T04:12:15.748Z,15.78
2023-03-15T04:13:15.693Z,15.80
2023-03-15T04:14:15.697Z,15.78
2023-03-15T04:15:15.681Z,15.74
2023-03-15T04:16:15.755Z,15.74
2023-03-15T04:17:15.672Z,15.71
2023-03-15T04:18:15.670Z,15.72
2023-03-15T04:19:15.657Z,15.68
2023-03-15T04:20:15.652Z,15.74
2023-03-15T04:21:15.650Z,15.78
2023-03-15T04:22:15.632Z,15.67
2023-03-15T04:23:15.749Z,15.67
2023-03-15T04:24:15.645Z,15.78
2023-03-15T04:25:15.625Z,15.68
2023-03-15T04:26:15.623Z,15.68
2023-03-15T04:27:15.637Z,15.67
2023-03-15T04:28:15.622Z,15.60
2023-03-15T04:29:15.599Z,15.69
2023-03-15T04:30:15.601Z,15.67
2023-03-15T04:31:15.610Z,15.72
2023-03-15T04:32:15.583Z,15.69
2023-03-15T04:33:15.599Z,15.60
2023-03-15T04:34:15.596Z,15.69
2023-03-15T04:35:15.566Z,15.69
2023-03-15T04:36:15.571Z,15.69
2023-03-15T04:37:15.564Z,15.68
2023-03-15T04:38:15.560Z,15.72
2023-03-15T04:39:15.572Z,15.68
2023-03-15T04:40:15.548Z,15.72
2023-03-15T04:41:15.543Z,15.68
2023-03-15T04:42:15.543Z,15.67
2023-03-15T04:43:15.548Z,15.68
2023-03-15T04:44:15.527Z,15.71
2023-03-15T04:45:15.536Z,15.67
2023-03-15T04:46:15.551Z,15.67
2023-03-15T04:47:15.517Z,15.71
2023-03-15T04:48:15.537Z,15.68
2023-03-15T04:49:15.519Z,15.59
2023-03-15T04:50:15.500Z,15.59
2023-03-15T04:51:15.495Z,15.69
2023-03-15T04:52:15.505Z,15.62
2023-03-15T04:53:15.480Z,15.60
2023-03-15T04:54:15.501Z,15.59
2023-03-15T04:55:15.502Z,15.59
2023-03-15T04:56:15.473Z,15.65
2023-03-15T04:57:15.465Z,15.56
2023-03-15T04:58:15.470Z,15.67
2023-03-15T04:59:15.455Z,15.62
2023-03-15T05:00:15.475Z,15.59
2023-03-15T05:01:15.484Z,15.65
2023-03-15T05:02:15.522Z,15.59
2023-03-15T05:03:15.427Z,15.64
2023-03-15T05:04:15.434Z,15.67
2023-03-15T05:05:15.416Z,15.64
2023-03-15T05:06:15.428Z,15.65
2023-03-15T05:07:15.419Z,15.67
2023-03-15T05:08:15.409Z,15.65
2023-03-15T05:09:15.419Z,15.64
2023-03-15T05:10:15.392Z,15.59
2023-03-15T05:11:15.403Z,15.62
2023-03-15T05:12:15.381Z,15.60
2023-03-15T05:13:15.389Z,15.60
2023-03-15T05:14:15.387Z,15.65
2023-03-15T05:15:15.520Z,15.64
2023-03-15T05:16:15.430Z,15.64
2023-03-15T05:17:15.409Z,15.64
2023-03-15T05:18:15.347Z,15.65
2023-03-15T05:19:15.357Z,15.60
2023-03-15T05:20:15.373Z,15.65
2023-03-15T05:21:15.347Z,15.62
2023-03-15T05:22:15.343Z,15.64
2023-03-15T05:23:15.332Z,15.64
2023-03-15T05:24:15.321Z,15.60
2023-03-15T05:25:15.334Z,15.60
2023-03-15T05:26:15.322Z,15.64
2023-03-15T05:27:15.335Z,15.59
2023-03-15T05:28:15.316Z,15.65
2023-03-15T05:29:15.306Z,15.57
2023-03-15T05:30:15.296Z,15.56
2023-03-15T05:31:15.302Z,15.64
2023-03-15T05:32:15.279Z,15.60
2023-03-15T05:33:15.290Z,15.54
2023-03-15T05:34:15.272Z,15.60
2023-03-15T05:35:15.259Z,15.56
2023-03-15T05:36:15.266Z,15.59
2023-03-15T05:37:15.247Z,15.65
2023-03-15T05:38:15.278Z,15.60
2023-03-15T05:39:15.250Z,15.64
2023-03-15T05:40:15.233Z,15.64
2023-03-15T05:41:15.229Z,15.62
2023-03-15T05:42:15.268Z,15.72
2023-03-15T05:43:15.292Z,15.69
2023-03-15T05:44:15.228Z,15.75
2023-03-15T05:45:15.206Z,15.71
2023-03-15T05:46:15.348Z,15.74
2023-03-15T05:47:15.193Z,15.92
2023-03-15T05:48:15.212Z,15.92
2023-03-15T05:49:15.197Z,15.87
2023-03-15T05:50:15.199Z,15.89
2023-03-15T05:51:15.205Z,15.97
2023-03-15T05:52:15.174Z,16.02
2023-03-15T05:53:15.179Z,15.96
2023-03-15T05:54:15.180Z,16.08
2023-03-15T05:55:15.168Z,16.08
2023-03-15T05:56:15.167Z,16.07
2023-03-15T05:57:15.156Z,16.11
2023-03-15T05:58:15.144Z,16.11
2023-03-15T05:59:15.164Z,16.15
2023-03-15T06:00:15.148Z,16.11
2023-03-15T06:01:15.124Z,16.15
2023-03-15T06:02:15.136Z,16.24
2023-03-15T06:03:15.159Z,16.24
2023-03-15T06:04:15.208Z,16.23
2023-03-15T06:05:15.102Z,16.28
2023-03-15T06:06:15.115Z,16.28
2023-03-15T06:07:15.107Z,16.33
2023-03-15T06:08:15.098Z,16.31
2023-03-15T06:09:15.086Z,16.42
2023-03-15T06:10:15.093Z,16.42
2023-03-15T06:11:15.086Z,16.43
2023-03-15T06:12:15.093Z,16.43
2023-03-15T06:13:17.807Z,16.45
2023-03-15T06:14:15.064Z,16.52
2023-03-15T06:15:15.089Z,16.49
2023-03-15T06:16:15.111Z,16.53
2023-03-15T06:17:15.064Z,16.57
2023-03-15T06:18:15.068Z,16.58
2023-03-15T06:19:15.051Z,16.58
2023-03-15T06:20:15.055Z,16.61
2023-03-15T06:21:15.036Z,16.64
2023-03-15T06:22:15.030Z,16.68
2023-03-15T06:23:15.025Z,16.71
2023-03-15T06:24:15.044Z,16.75
2023-03-15T06:25:15.023Z,16.82
2023-03-15T06:26:15.020Z,16.85
2023-03-15T06:27:15.006Z,16.78
2023-03-15T06:29:01.587Z,16.83
2023-03-15T06:30:01.599Z,16.96
2023-03-15T06:31:01.653Z,16.96
2023-03-15T06:32:01.591Z,16.91
2023-03-15T06:33:01.663Z,17.03
2023-03-15T06:34:01.590Z,17.06
2023-03-15T06:35:01.554Z,17.01
2023-03-15T06:36:01.588Z,17.04
2023-03-15T06:37:01.546Z,17.03
2023-03-15T06:38:01.562Z,17.07
2023-03-15T06:39:01.540Z,17.14
2023-03-15T06:40:01.549Z,17.12
2023-03-15T06:41:01.537Z,17.15
2023-03-15T06:42:01.538Z,17.14
2023-03-15T06:43:01.536Z,17.18
2023-03-15T06:44:01.538Z,17.15
2023-03-15T06:45:01.531Z,17.18
2023-03-15T06:46:01.576Z,17.18
2023-03-15T06:47:01.533Z,17.18
2023-03-15T06:48:01.502Z,17.14
2023-03-15T06:49:01.493Z,17.14
2023-03-15T06:50:01.511Z,17.19
2023-03-15T06:51:01.526Z,17.22
2023-03-15T06:52:01.489Z,17.22
2023-03-15T06:53:01.484Z,17.08
2023-03-15T06:54:01.498Z,17.19
2023-03-15T06:55:01.504Z,17.18
2023-03-15T06:56:01.484Z,17.03
2023-03-15T06:57:01.477Z,17.04
2023-03-15T06:58:01.467Z,17.16
2023-03-15T06:59:01.455Z,17.12
2023-03-15T07:00:01.461Z,17.11
2023-03-15T07:01:01.451Z,17.14
2023-03-15T07:02:01.461Z,17.19
2023-03-15T07:03:01.517Z,17.11
2023-03-15T07:04:01.455Z,17.16
2023-03-15T07:05:01.436Z,17.14
2023-03-15T07:06:01.436Z,17.07
2023-03-15T07:07:01.438Z,17.11
2023-03-15T07:08:01.456Z,17.06
2023-03-15T07:09:01.430Z,17.08
2023-03-15T07:10:01.423Z,17.12
2023-03-15T07:11:01.419Z,17.04
2023-03-15T07:12:01.463Z,17.06
2023-03-15T07:13:01.460Z,17.03
2023-03-15T07:14:01.415Z,17.07
2023-03-15T07:15:01.438Z,17.03
2023-03-15T07:16:01.478Z,16.96
2023-03-15T07:17:01.404Z,16.93
2023-03-15T07:18:01.405Z,16.91
2023-03-15T07:19:01.428Z,16.96
2023-03-15T07:20:01.382Z,16.94
2023-03-15T07:21:01.400Z,16.83
2023-03-15T07:22:01.384Z,16.94
2023-03-15T07:23:01.376Z,16.85
2023-03-15T07:24:01.379Z,16.85
2023-03-15T07:25:01.372Z,16.82
2023-03-15T07:26:01.370Z,16.75
2023-03-15T07:27:01.381Z,16.70
2023-03-15T07:28:01.345Z,16.75
2023-03-15T07:29:01.342Z,16.78
2023-03-15T07:30:01.385Z,16.76
2023-03-15T07:31:01.337Z,16.75
2023-03-15T07:32:01.445Z,16.76
2023-03-15T07:33:01.520Z,16.68
2023-03-15T07:34:01.318Z,16.73
2023-03-15T07:35:01.360Z,16.68
2023-03-15T07:36:01.390Z,16.75
2023-03-15T07:37:01.312Z,16.73
2023-03-15T07:38:01.311Z,16.70
2023-03-15T07:39:01.317Z,16.70
2023-03-15T07:40:01.300Z,16.60
2023-03-15T07:41:01.330Z,16.66
2023-03-15T07:42:01.290Z,16.64
2023-03-15T07:43:01.281Z,16.67
2023-03-15T07:44:01.273Z,16.56
2023-03-15T07:45:01.271Z,16.61
2023-03-15T07:46:01.286Z,16.58
2023-03-15T07:47:01.362Z,16.53
2023-03-15T07:48:01.263Z,16.52
2023-03-15T07:49:01.270Z,16.46
2023-03-15T07:50:01.246Z,16.49
2023-03-15T07:51:01.280Z,16.46
2023-03-15T07:52:01.275Z,16.46
2023-03-15T07:53:01.236Z,16.46
2023-03-15T07:54:01.231Z,16.43
2023-03-15T07:55:01.235Z,16.46
2023-03-15T07:56:01.227Z,16.48
2023-03-15T07:57:01.233Z,16.46
2023-03-15T07:58:01.210Z,16.50
2023-03-15T07:59:01.237Z,16.43
2023-03-15T08:00:01.222Z,16.48
2023-03-15T08:01:01.199Z,16.39
2023-03-15T08:02:02.953Z,16.38
2023-03-15T08:03:01.272Z,16.38
2023-03-15T08:04:01.194Z,16.35
2023-03-15T08:05:01.195Z,16.38
2023-03-15T08:06:01.177Z,16.35
2023-03-15T08:07:01.198Z,16.31
2023-03-15T08:08:01.182Z,16.35
2023-03-15T08:09:01.177Z,16.35
2023-03-15T08:10:01.161Z,16.34
2023-03-15T08:11:01.169Z,16.30
2023-03-15T08:12:01.150Z,16.35
2023-03-15T08:13:01.147Z,16.39
2023-03-15T08:14:01.140Z,16.33
2023-03-15T08:15:01.150Z,16.38
2023-03-15T08:16:01.198Z,16.33
2023-03-15T08:17:01.145Z,16.35
2023-03-15T08:18:01.140Z,16.34
2023-03-15T08:19:01.134Z,16.28
2023-03-15T08:20:01.144Z,16.17
2023-03-15T08:21:01.129Z,16.27
2023-03-15T08:22:01.175Z,16.21
2023-03-15T08:23:01.181Z,16.24
2023-03-15T08:24:01.156Z,16.23
2023-03-15T08:25:01.104Z,16.24
2023-03-15T08:26:01.081Z,16.25
2023-03-15T08:27:01.088Z,16.21
2023-03-15T08:28:01.099Z,16.24
2023-03-15T08:29:01.080Z,16.21
2023-03-15T08:30:01.071Z,16.23
2023-03-15T08:31:01.104Z,16.20
2023-03-15T08:32:01.237Z,16.14
2023-03-15T08:33:01.137Z,16.14
2023-03-15T08:34:01.060Z,16.08
2023-03-15T08:35:01.056Z,16.12
2023-03-15T08:36:01.076Z,16.14
2023-03-15T08:37:01.039Z,16.11
2023-03-15T08:38:01.032Z,16.09
2023-03-15T08:39:01.054Z,16.12
2023-03-15T08:40:01.028Z,16.12
2023-03-15T08:41:01.029Z,16.14
2023-03-15T08:42:01.026Z,16.09
2023-03-15T08:43:01.009Z,16.09
2023-03-15T08:44:01.017Z,16.08
2023-03-15T08:45:01.022Z,16.04
2023-03-15T08:46:01.992Z,16.12
2023-03-15T08:47:01.084Z,16.07
2023-03-15T08:48:01.001Z,16.04
2023-03-15T08:49:01.003Z,16.07
2023-03-15T08:50:00.985Z,16.09
2023-03-15T08:51:00.970Z,16.02
2023-03-15T08:52:00.972Z,16.00
2023-03-15T08:53:00.977Z,16.05
2023-03-15T08:54:00.988Z,16.07
2023-03-15T08:55:00.980Z,16.05
2023-03-15T08:56:00.980Z,15.94
2023-03-15T08:57:00.959Z,16.05
2023-03-15T08:58:00.946Z,15.93
2023-03-15T08:59:00.940Z,15.94
2023-03-15T09:00:00.920Z,16.07
2023-03-15T09:01:00.940Z,15.92
2023-03-15T09:02:01.100Z,15.92
2023-03-15T09:03:00.914Z,16.00
2023-03-15T09:04:00.936Z,15.97
2023-03-15T09:05:00.931Z,16.00
2023-03-15T09:06:00.898Z,15.92
2023-03-15T09:07:00.920Z,16.00
2023-03-15T09:08:00.890Z,15.96
2023-03-15T09:09:00.881Z,15.94
2023-03-15T09:10:02.426Z,15.92
2023-03-15T09:11:00.896Z,15.92
2023-03-15T09:12:00.888Z,15.96
2023-03-15T09:13:00.865Z,15.93
2023-03-15T09:14:00.864Z,15.94
2023-03-15T09:15:00.876Z,15.97
2023-03-15T09:16:00.860Z,15.97
2023-03-15T09:17:00.948Z,15.97
2023-03-15T09:18:00.843Z,16.00
2023-03-15T09:19:00.851Z,15.93
2023-03-15T09:20:00.832Z,15.94
2023-03-15T09:21:00.849Z,15.94
2023-03-15T09:22:15.946Z,15.90
2023-03-15T09:23:00.852Z,15.90
2023-03-15T09:24:00.840Z,15.90
2023-03-15T09:25:00.835Z,15.86
2023-03-15T09:26:00.805Z,15.89
2023-03-15T09:27:00.845Z,15.93
2023-03-15T09:28:00.808Z,15.96
2023-03-15T09:29:00.810Z,15.89
2023-03-15T09:30:00.819Z,15.94
2023-03-15T09:31:00.829Z,15.84
2023-03-15T09:32:00.788Z,15.90
2023-03-15T09:33:00.908Z,15.93
2023-03-15T09:34:00.795Z,15.84
2023-03-15T09:35:00.772Z,15.92
2023-03-15T09:36:00.810Z,15.89
2023-03-15T09:37:00.759Z,15.87
2023-03-15T09:38:00.762Z,15.84
2023-03-15T09:39:00.761Z,15.90
2023-03-15T09:40:00.777Z,15.84
2023-03-15T09:41:00.751Z,15.82
2023-03-15T09:42:00.759Z,15.84
2023-03-15T09:43:00.778Z,15.89
2023-03-15T09:44:00.736Z,15.83
2023-03-15T09:45:00.749Z,15.93
2023-03-15T09:46:00.789Z,15.89
2023-03-15T09:47:00.745Z,15.90
2023-03-15T09:48:00.707Z,15.86
2023-03-15T09:49:00.742Z,15.83
2023-03-15T09:50:00.728Z,15.86
2023-03-15T09:51:00.707Z,15.89
2023-03-15T09:52:00.692Z,15.86
2023-03-15T09:53:00.688Z,15.89
2023-03-15T09:54:00.709Z,15.87
2023-03-15T09:55:00.692Z,15.89
2023-03-15T09:56:00.693Z,15.87
2023-03-15T09:57:00.678Z,15.87
2023-03-15T09:58:00.681Z,15.89
2023-03-15T09:59:00.681Z,15.84
2023-03-15T10:00:00.698Z,15.87
2023-03-15T10:01:00.650Z,15.92
2023-03-15T10:02:00.697Z,15.87
2023-03-15T10:03:00.654Z,15.86
2023-03-15T10:04:00.712Z,15.89
2023-03-15T10:05:00.637Z,15.84
2023-03-15T10:06:00.647Z,15.89
2023-03-15T10:07:00.630Z,15.90
2023-03-15T10:08:00.629Z,15.83
2023-03-15T10:09:00.630Z,15.83
2023-03-15T10:10:00.625Z,15.84
2023-03-15T10:11:00.610Z,15.87
2023-03-15T10:12:00.616Z,15.83
2023-03-15T10:13:00.609Z,15.87
2023-03-15T10:14:00.620Z,15.83
2023-03-15T10:15:00.627Z,15.90
2023-03-15T10:16:00.647Z,15.87
2023-03-15T10:17:00.589Z,15.87
2023-03-15T10:18:00.568Z,15.89
2023-03-15T10:19:00.577Z,15.89
2023-03-15T10:20:00.558Z,15.89
2023-03-15T10:21:00.575Z,15.89
2023-03-15T10:22:00.557Z,15.82
2023-03-15T10:23:00.573Z,15.84
2023-03-15T10:24:00.538Z,15.82
2023-03-15T10:25:00.568Z,15.89
2023-03-15T10:26:00.533Z,15.86
2023-03-15T10:27:00.551Z,15.89
2023-03-15T10:28:00.552Z,15.89
2023-03-15T10:29:00.519Z,15.89
2023-03-15T10:30:00.526Z,15.84
2023-03-15T10:31:00.619Z,15.86
2023-03-15T10:32:00.549Z,15.75
2023-03-15T10:33:00.617Z,15.87
2023-03-15T10:34:00.489Z,15.82
2023-03-15T10:35:00.494Z,15.82
2023-03-15T10:36:10.721Z,15.87
2023-03-15T10:37:00.490Z,15.86
2023-03-15T10:38:00.470Z,15.71
2023-03-15T10:39:00.477Z,15.80
2023-03-15T10:40:00.483Z,15.84
2023-03-15T10:41:00.471Z,15.69
2023-03-15T10:42:00.467Z,15.80
2023-03-15T10:43:00.462Z,15.72
2023-03-15T10:44:00.439Z,15.72
2023-03-15T10:45:00.447Z,15.80
2023-03-15T10:46:00.436Z,15.74
2023-03-15T10:47:03.015Z,15.82
2023-03-15T10:48:01.166Z,15.80
2023-03-15T10:49:00.442Z,15.68
2023-03-15T10:50:00.424Z,15.72
2023-03-15T10:51:00.456Z,15.78
2023-03-15T10:52:00.400Z,15.67
2023-03-15T10:53:00.420Z,15.68
2023-03-15T10:54:00.394Z,15.82
2023-03-15T10:55:04.400Z,15.76
2023-03-15T10:56:00.413Z,15.74
2023-03-15T10:57:00.400Z,15.78
2023-03-15T10:58:00.411Z,15.72
2023-03-15T10:59:11.848Z,15.76
2023-03-15T11:00:00.377Z,15.75
2023-03-15T11:01:00.374Z,15.80
2023-03-15T11:02:00.389Z,15.76
2023-03-15T11:03:00.426Z,15.74
2023-03-15T11:04:00.354Z,15.76
2023-03-15T11:05:00.356Z,15.74
2023-03-15T11:06:00.344Z,15.74
2023-03-15T11:07:00.335Z,15.74
2023-03-15T11:08:00.329Z,15.75
2023-03-15T11:09:00.335Z,15.72
2023-03-15T11:10:00.330Z,15.72
2023-03-15T11:11:00.332Z,15.74
2023-03-15T11:12:00.323Z,15.75
2023-03-15T11:13:00.318Z,15.74
2023-03-15T11:14:00.303Z,15.74
2023-03-15T11:15:00.329Z,15.72
2023-03-15T11:16:00.436Z,15.74
2023-03-15T11:17:00.336Z,15.78
2023-03-15T11:18:00.293Z,15.75
2023-03-15T11:19:00.299Z,15.72
2023-03-15T11:20:00.292Z,15.76
2023-03-15T11:21:00.273Z,15.76
2023-03-15T11:22:00.262Z,15.69
2023-03-15T11:23:00.268Z,15.71
2023-03-15T11:24:00.250Z,15.67
2023-03-15T11:25:00.332Z,15.72
2023-03-15T11:26:00.245Z,15.68
2023-03-15T11:27:00.242Z,15.72
2023-03-15T11:28:00.244Z,15.72
2023-03-15T11:29:00.250Z,15.75
2023-03-15T11:30:00.229Z,15.74
2023-03-15T11:31:00.242Z,15.69
2023-03-15T11:32:00.217Z,15.75
2023-03-15T11:33:00.296Z,15.74
2023-03-15T11:34:00.216Z,15.75
2023-03-15T11:35:00.234Z,15.75
2023-03-15T11:36:00.301Z,15.71
2023-03-15T11:37:07.896Z,15.71
2023-03-15T11:38:12.863Z,15.71
2023-03-15T11:39:02.856Z,15.72
2023-03-15T11:40:10.518Z,15.74
2023-03-15T11:41:00.179Z,15.69
2023-03-15T11:42:00.191Z,15.75
2023-03-15T11:43:00.184Z,15.87
2023-03-15T11:44:00.173Z,15.82
2023-03-15T11:45:00.169Z,15.72
2023-03-15T11:46:00.275Z,15.68
2023-03-15T11:47:00.164Z,15.78
2023-03-15T11:48:00.169Z,15.69
2023-03-15T11:49:00.138Z,15.84
2023-03-15T11:50:00.154Z,15.92
2023-03-15T11:51:00.171Z,15.80
2023-03-15T11:52:00.177Z,15.82
2023-03-15T11:53:00.133Z,15.78
2023-03-15T11:54:00.129Z,15.82
2023-03-15T11:55:00.136Z,15.74
2023-03-15T11:56:00.119Z,15.82
2023-03-15T11:57:00.095Z,15.89
2023-03-15T11:58:00.120Z,15.80
2023-03-15T11:59:01.109Z,15.84
2023-03-15T12:00:00.209Z,15.78
2023-03-15T12:01:00.100Z,15.75
2023-03-15T12:02:00.245Z,15.78
2023-03-15T12:03:00.124Z,15.78
2023-03-15T12:04:00.089Z,15.82
2023-03-15T12:05:09.137Z,15.69
2023-03-15T12:06:00.096Z,15.83
2023-03-15T12:07:00.089Z,15.83
2023-03-15T12:08:00.063Z,15.84
2023-03-15T12:09:00.068Z,15.75
2023-03-15T12:10:00.047Z,15.74
2023-03-15T12:11:00.034Z,15.78
2023-03-15T12:12:00.044Z,15.76
2023-03-15T12:13:00.042Z,15.86
2023-03-15T12:14:00.036Z,15.78
2023-03-15T12:15:00.114Z,15.76
2023-03-15T12:16:00.021Z,15.86
2023-03-15T12:17:00.086Z,15.74
2023-03-15T12:18:00.058Z,15.89
2023-03-15T12:19:00.021Z,15.84
2023-03-15T12:19:59.995Z,15.80
2023-03-15T12:20:59.999Z,15.78
2023-03-15T12:22:00.004Z,15.75
2023-03-15T12:23:00.026Z,15.86
2023-03-15T12:23:59.995Z,15.82
2023-03-15T12:24:59.984Z,15.89
2023-03-15T12:25:59.977Z,15.89
2023-03-15T12:26:59.961Z,15.92
2023-03-15T12:27:59.976Z,15.84
2023-03-15T12:28:59.964Z,15.87
2023-03-15T12:29:59.954Z,15.74
2023-03-15T12:30:59.991Z,15.84
2023-03-15T12:31:59.966Z,15.92
2023-03-15T12:32:59.944Z,15.89
2023-03-15T12:33:59.938Z,15.82
2023-03-15T12:34:59.912Z,15.86
2023-03-15T12:35:59.970Z,15.90
2023-03-15T12:36:59.915Z,15.89
2023-03-15T12:37:59.921Z,15.87
2023-03-15T12:38:59.934Z,15.89
2023-03-15T12:39:59.920Z,15.89
2023-03-15T12:40:59.905Z,15.84
2023-03-15T12:41:59.902Z,15.89
2023-03-15T12:42:59.885Z,15.89
2023-03-15T12:43:59.894Z,15.89
2023-03-15T12:44:59.908Z,15.87
2023-03-15T12:45:59.887Z,15.84
2023-03-15T12:46:59.869Z,15.83
2023-03-15T12:47:59.870Z,15.83
2023-03-15T12:48:59.864Z,15.87
2023-03-15T12:49:59.862Z,15.86
2023-03-15T12:50:59.857Z,15.90
2023-03-15T12:51:59.856Z,15.89
2023-03-15T12:52:59.839Z,15.89